Hlavní strana
METAR-TAF:

METAR-TAF

Letiště :

Jasper County, Indiana, Spojené státy americké

zeměpisná šířka: 40-56-52N, zeměpisná délka: 087-10-57W, výška: 213 m

Aktuální stav počasí

Zpráva byla vytvořena před 17 minutami, v 14:55 UTC
Západojihozápadní vítr 11 kt
Teplota 5°C
Vlhkost vzduchu 70%
Tlak 1015 hPa
Viditelnost: 16.1 km
Jasno

METAR: KRZL 031455Z AUTO 25011KT 10SM CLR 05/00 A2996 RMK AO2

Čas: 10:12 (15:12 UTC)


TAF: chybějící

Stav a předpovědi počasí z více než 4 000 letišť (zprávy METAR a TAF).

Červené a žluté tečky na mapě představují dostupné meteorologické stanice.

Když kurzor umístíte na tečku, zobrazí se název stanice.

Pak kliknutím zobrazíte stav a předpověď počasí.

Chcete-li změnit mapu, kliknutím na zelené tlačítko se znaménkem +mapu přiblížíte, kliknutím na zelené tlačítko se znaménkem – mapu oddálíte a kliknutím na zelené šipky přejdete na sousední mapy.


METAR-TAF: